地図

経路データ

SID SEASON NUMBER BASIN SUBBASIN NAME ISO_TIME NATURE LAT LON WMO_WIND WMO_PRES WMO_AGENCY TRACK_TYPE DIST2LAND LANDFALL IFLAG USA_AGENCY USA_ATCF_ID USA_LAT USA_LON USA_RECORD USA_STATUS USA_WIND USA_PRES USA_SSHS USA_R34_NE USA_R34_SE USA_R34_SW USA_R34_NW USA_R50_NE USA_R50_SE USA_R50_SW USA_R50_NW USA_R64_NE USA_R64_SE USA_R64_SW USA_R64_NW USA_POCI USA_ROCI USA_RMW USA_EYE TOKYO_LAT TOKYO_LON TOKYO_GRADE TOKYO_WIND TOKYO_PRES TOKYO_R50_DIR TOKYO_R50_LONG TOKYO_R50_SHORT TOKYO_R30_DIR TOKYO_R30_LONG TOKYO_R30_SHORT TOKYO_LAND CMA_LAT CMA_LON CMA_CAT CMA_WIND CMA_PRES HKO_LAT HKO_LON HKO_CAT HKO_WIND HKO_PRES NEWDELHI_LAT NEWDELHI_LON NEWDELHI_GRADE NEWDELHI_WIND NEWDELHI_PRES NEWDELHI_CI NEWDELHI_DP NEWDELHI_POCI REUNION_LAT REUNION_LON REUNION_TYPE REUNION_WIND REUNION_PRES REUNION_TNUM REUNION_CI REUNION_RMW REUNION_R34_NE REUNION_R34_SE REUNION_R34_SW REUNION_R34_NW REUNION_R50_NE REUNION_R50_SE REUNION_R50_SW REUNION_R50_NW REUNION_R64_NE REUNION_R64_SE REUNION_R64_SW REUNION_R64_NW BOM_LAT BOM_LON BOM_TYPE BOM_WIND BOM_PRES BOM_TNUM BOM_CI BOM_RMW BOM_R34_NE BOM_R34_SE BOM_R34_SW BOM_R34_NW BOM_R50_NE BOM_R50_SE BOM_R50_SW BOM_R50_NW BOM_R64_NE BOM_R64_SE BOM_R64_SW BOM_R64_NW BOM_ROCI BOM_POCI BOM_EYE BOM_POS_METHOD BOM_PRES_METHOD NADI_LAT NADI_LON NADI_CAT NADI_WIND NADI_PRES WELLINGTON_LAT WELLINGTON_LON WELLINGTON_WIND WELLINGTON_PRES DS824_LAT DS824_LON DS824_STAGE DS824_WIND DS824_PRES TD9636_LAT TD9636_LON TD9636_STAGE TD9636_WIND TD9636_PRES TD9635_LAT TD9635_LON TD9635_WIND TD9635_PRES TD9635_ROCI NEUMANN_LAT NEUMANN_LON NEUMANN_CLASS NEUMANN_WIND NEUMANN_PRES MLC_LAT MLC_LON MLC_CLASS MLC_WIND MLC_PRES USA_GUST BOM_GUST BOM_GUST_PER REUNION_GUST REUNION_GUST_PER USA_SEAHGT USA_SEARAD_NE USA_SEARAD_SE USA_SEARAD_SW USA_SEARAD_NW STORM_SPEED STORM_DIR
1994242N12112 1994 74 WP MM JOEL 1994-08-30 00:00:00 NR 11.9000 112.100 main 293 293 O_____________ jtwc_wp WP231994 11.9000 112.100 10 -1 3 72
1994242N12112 1994 74 WP MM JOEL 1994-08-30 03:00:00 NR 11.9500 112.250 main 311 301 P_____________ WP231994 11.9500 112.250 10 -1 3 71
1994242N12112 1994 74 WP MM JOEL 1994-08-30 06:00:00 NR 12.0000 112.400 main 322 322 O_____________ jtwc_wp WP231994 12.0000 112.400 10 -1 3 71
1994242N12112 1994 74 WP MM JOEL 1994-08-30 09:00:00 NR 12.0500 112.550 main 343 341 P_____________ WP231994 12.0500 112.550 10 -1 3 71
1994242N12112 1994 74 WP MM JOEL 1994-08-30 12:00:00 NR 12.1000 112.700 main 352 352 O_____________ jtwc_wp WP231994 12.1000 112.700 10 -1 3 71
1994242N12112 1994 74 WP MM JOEL 1994-08-30 15:00:00 NR 12.1500 112.850 main 373 372 P_____________ WP231994 12.1500 112.850 10 -1 3 71
1994242N12112 1994 74 WP MM JOEL 1994-08-30 18:00:00 NR 12.2000 113.000 main 382 382 O_____________ jtwc_wp WP231994 12.2000 113.000 10 -1 3 71
1994242N12112 1994 74 WP MM JOEL 1994-08-30 21:00:00 NR 12.2500 113.150 main 404 403 P_____________ WP231994 12.2500 113.150 10 -1 3 71
1994242N12112 1994 74 WP MM JOEL 1994-08-31 00:00:00 NR 12.3000 113.300 main 414 414 O_____________ jtwc_wp WP231994 12.3000 113.300 10 -1 3 71
1994242N12112 1994 74 WP MM JOEL 1994-08-31 03:00:00 NR 12.3500 113.443 main 425 425 P_____________ WP231994 12.3500 113.443 10 -1 3 71
1994242N12112 1994 74 WP MM JOEL 1994-08-31 06:00:00 NR 12.4000 113.600 main 445 445 O_____________ jtwc_wp WP231994 12.4000 113.600 10 -1 3 74
1994242N12112 1994 74 WP MM JOEL 1994-08-31 09:00:00 NR 12.4425 113.785 main 467 467 P_____________ WP231994 12.4425 113.785 10 -1 4 76
1994242N12112 1994 74 WP MM JOEL 1994-08-31 12:00:00 NR 12.5000 114.000 main 488 488 O_____________ jtwc_wp WP231994 12.5000 114.000 10 -1 5 70
1994242N12112 1994 74 WP MM JOEL 1994-08-31 15:00:00 NR 12.6000 114.235 main 510 510 P_____________ WP231994 12.6000 114.235 12 -1 5 68
1994242N12112 1994 74 WP MM JOEL 1994-08-31 18:00:00 NR 12.7000 114.500 main 532 510 O_____________ jtwc_wp WP231994 12.7000 114.500 15 -1 6 75
1994242N12112 1994 74 WP MM JOEL 1994-08-31 21:00:00 NR 12.7500 114.800 main 519 499 P_____________ WP231994 12.7500 114.800 15 -1 6 80
1994242N12112 1994 74 WP MM JOEL 1994-09-01 00:00:00 NR 12.8000 115.100 main 499 485 O_____________ jtwc_wp WP231994 12.8000 115.100 15 -1 6 75
1994242N12112 1994 74 WP MM JOEL 1994-09-01 03:00:00 NR 12.8925 115.358 main 475 459 P_____________ WP231994 12.8925 115.358 15 -1 5 68
1994242N12112 1994 74 WP MM JOEL 1994-09-01 06:00:00 NR 13.0000 115.600 main 459 445 O_____________ jtwc_wp WP231994 13.0000 115.600 15 -1 5 67
1994242N12112 1994 74 WP MM JOEL 1994-09-01 09:00:00 NR 13.1000 115.850 main 436 423 P_____________ WP231994 13.1000 115.850 15 -1 5 68
1994242N12112 1994 74 WP MM JOEL 1994-09-01 12:00:00 NR 13.2000 116.100 main 423 402 O_____________ jtwc_wp WP231994 13.2000 116.100 15 -1 5 69
1994242N12112 1994 74 WP MM JOEL 1994-09-01 15:00:00 NR 13.2925 116.365 main 402 391 P_____________ WP231994 13.2925 116.365 15 -1 5 68
1994242N12112 1994 74 WP MM JOEL 1994-09-01 18:00:00 NR 13.4000 116.600 main 391 378 O_____________ jtwc_wp WP231994 13.4000 116.600 15 -1 5 59
1994242N12112 1994 74 WP MM JOEL 1994-09-01 21:00:00 NR 13.5350 116.780 main 378 366 P_____________ WP231994 13.5350 116.780 15 -1 4 44
1994242N12112 1994 74 WP MM JOEL 1994-09-02 00:00:00 NR 13.7000 116.900 main 366 348 O_____________ jtwc_wp WP231994 13.7000 116.900 15 -1 4 28
1994242N12112 1994 74 WP MM JOEL 1994-09-02 03:00:00 NR 13.8850 116.973 main 348 343 P_____________ WP231994 13.8850 116.973 17 -1 4 13
1994242N12112 1994 74 WP MM JOEL 1994-09-02 06:00:00 NR 14.1000 117.000 main 343 335 O_____________ jtwc_wp WP231994 14.1000 117.000 20 -1 5 9
1994242N12112 1994 74 WP MM JOEL 1994-09-02 09:00:00 NR 14.3425 117.037 main 335 327 P_____________ WP231994 14.3425 117.037 20 -1 7 344
1994242N12112 1994 74 WP MM JOEL 1994-09-02 12:00:00 TS 14.7800 116.800 main 338 338 O_O___________ jtwc_wp WP231994 14.6000 117.000 20 -1 15.5000 116.000 1 23 1004 9 323
1994242N12112 1994 74 WP MM JOEL 1994-09-02 15:00:00 TS 15.0658 116.472 main 357 357 P_P___________ WP231994 14.8575 116.853 20 -1 15.4826 115.710 1 26 1003 8 305
1994242N12112 1994 74 WP MM JOEL 1994-09-02 18:00:00 TS 15.2714 116.086 main 393 393 O_O___________ jtwc_wp WP231994 15.1000 116.600 20 -1 15.5000 115.400 1 29 1002 9 296
1994242N12112 1994 74 WP MM JOEL 1994-09-02 21:00:00 TS 15.4425 115.672 main 433 433 P_P___________ WP231994 15.3075 116.287 20 -1 15.5775 115.058 1 29 1001 9 289
1994242N12112 1994 74 WP MM JOEL 1994-09-03 00:00:00 TS 15.5556 115.244 main 483 483 O_OO__________ jtwc_wp WP231994 15.5000 115.900 20 -1 15.7000 114.700 1 29 1000 15.2000 114.800 TD 30 1000 9 286
1994242N12112 1994 74 WP MM JOEL 1994-09-03 03:00:00 TS 15.6876 114.788 main 525 524 P_PP__________ WP231994 15.6999 115.472 20 -1 15.8651 114.298 1 33 997 15.3077 114.398 TD 32 998 10 286
1994242N12112 1994 74 WP MM JOEL 1994-09-03 06:00:00 TS 15.8167 114.292 1002 tokyo main 524 493 OOOO__________ jtwc_wp WP231994 15.9000 115.000 20 -1 16.0000 113.500 2 1002 0 0 0 16.0000 114.000 2 38 995 15.4000 114.000 TS 35 996 8 284
1994242N12112 1994 74 WP MM JOEL 1994-09-03 09:00:00 TS 15.8788 113.986 main 493 462 PPPP__________ WP231994 16.0999 114.507 20 -1 15.9824 113.600 2 1002 0 0 16.0072 114.037 2 38 995 15.4774 113.607 TS 35 996 6 285
1994242N12112 1994 74 WP MM JOEL 1994-09-03 12:00:00 TS 15.9733 113.687 1002 tokyo main 462 415 OOOO__________ jtwc_wp WP231994 16.3000 114.000 20 -1 16.0000 113.500 2 1002 0 0 0 16.0000 114.000 2 38 995 15.6000 113.200 TS 35 996 8 288
1994242N12112 1994 74 WP MM JOEL 1994-09-03 15:00:00 TS 16.1226 113.200 main 415 362 PPPP__________ WP231994 16.5149 113.493 22 -1 16.0777 113.075 2 1001 0 0 16.0629 113.482 2 38 995 15.8350 112.750 TS 35 996 10 288
1994242N12112 1994 74 WP MM JOEL 1994-09-03 18:00:00 TS 16.3000 112.650 1000 tokyo main 362 311 OOOO__________ jtwc_wp WP231994 16.7000 113.000 25 -1 16.2000 112.500 2 1000 0 0 0 16.2000 112.800 2 38 995 16.1000 112.300 TS 35 996 11 290
1994242N12112 1994 74 WP MM JOEL 1994-09-03 21:00:00 TS 16.4900 112.145 main 305 270 PPPP__________ WP231994 16.8374 112.535 25 -1 16.3576 111.963 2 999 0 0 16.4500 112.213 2 38 995 16.3150 111.870 TS 35 996 10 291
1994242N12112 1994 74 WP MM JOEL 1994-09-04 00:00:00 TS 16.6500 111.700 998 tokyo main 262 241 OOOO__________ jtwc_wp WP231994 16.9000 112.100 25 -1 16.5000 111.500 2 998 0 0 0 16.7000 111.700 2 38 995 16.5000 111.500 TS 35 996 8 288
1994242N12112 1994 74 WP MM JOEL 1994-09-04 03:00:00 TS 16.7348 111.361 main 241 213 PPPP__________ WP231994 16.8725 111.677 25 -1 16.5648 111.212 2 998 0 0 16.8297 111.327 2 38 995 16.6724 111.227 TS 35 996 6 282
1994242N12112 1994 74 WP MM JOEL 1994-09-04 06:00:00 TS 16.7750 111.075 998 tokyo main 213 195 OOOO__________ jtwc_wp WP231994 16.8000 111.300 25 -1 16.6000 111.000 2 998 0 0 0 16.9000 111.000 2 38 995 16.8000 111.000 TS 35 996 6 278
1994242N12112 1994 74 WP MM JOEL 1994-09-04 09:00:00 TS 16.8169 110.760 main 195 178 PPPP__________ WP231994 16.7574 110.985 27 -1 16.6649 110.758 2 998 0 0 16.9652 110.548 2 38 995 16.8800 110.750 TS 35 996 6 275
1994242N12112 1994 74 WP MM JOEL 1994-09-04 12:00:00 TS 16.8250 110.475 998 tokyo main 178 169 OOOO__________ jtwc_wp WP231994 16.7000 110.700 30 -1 16.7000 110.500 2 998 0 0 0 17.0000 110.200 2 38 995 16.9000 110.500 TS 35 996 5 268
1994242N12112 1994 74 WP MM JOEL 1994-09-04 15:00:00 TS 16.8012 110.259 main 169 162 PPPP__________ WP231994 16.6000 110.392 30 -1 16.6800 110.200 2 998 0 0 17.0448 110.193 2 38 995 16.8800 110.250 TS 35 996 4 256
1994242N12112 1994 74 WP MM JOEL 1994-09-04 18:00:00 TS 16.7250 110.050 998 tokyo main 173 169 OOOO__________ jtwc_wp WP231994 16.5000 110.100 30 -1 16.6000 109.900 2 998 0 0 0 17.0000 110.200 2 38 995 16.8000 110.000 TS 35 996 5 244
1994242N12112 1994 74 WP MM JOEL 1994-09-04 21:00:00 TS 16.5713 109.773 main 173 135 PPPP__________ WP231994 16.4349 109.843 32 -1 16.4350 109.627 2 998 0 0 16.7652 109.880 2 38 995 16.6500 109.742 TS 37 995 6 240
1994242N12112 1994 74 WP MM JOEL 1994-09-05 00:00:00 TS 16.4250 109.500 998 tokyo main 135 115 OOOO__________ jtwc_wp WP231994 16.4000 109.600 35 0 16.3000 109.400 2 998 0 0 0 16.5000 109.500 2 38 995 16.5000 109.500 TS 40 994 5 246
1994242N12112 1994 74 WP MM JOEL 1994-09-05 03:00:00 TS 16.3587 109.276 main 115 96 PPPP__________ WP231994 16.3700 109.327 35 0 16.3050 109.228 2 997 0 0 16.3474 109.270 2 38 995 16.4125 109.278 TS 40 994 4 263
1994242N12112 1994 74 WP MM JOEL 1994-09-05 06:00:00 TS 16.3750 109.100 996 tokyo main 96 87 OOOO__________ jtwc_wp WP231994 16.4000 109.100 35 0 16.4000 109.100 2 996 0 0 0 16.3000 109.100 2 38 995 16.4000 109.100 TS 40 994 3 289
1994242N12112 1994 74 WP MM JOEL 1994-09-05 09:00:00 TS 16.4662 108.948 main 85 85 PPPP__________ WP231994 16.5200 108.970 35 0 16.5125 108.963 2 995 0 0 16.3700 108.898 2 38 995 16.4625 108.963 TS 40 994 3 319
1994242N12112 1994 74 WP MM JOEL 1994-09-05 12:00:00 TS 16.6250 108.875 994 tokyo main 92 92 OOOO__________ jtwc_wp WP231994 16.7000 108.900 35 0 16.7000 108.900 2 994 0 0 0 16.5000 108.800 2 38 995 16.6000 108.900 TS 40 994 3 350
1994242N12112 1994 74 WP MM JOEL 1994-09-05 15:00:00 TS 16.7987 108.896 main 108 108 PPPP__________ WP231994 16.8850 108.820 35 0 16.9775 108.955 2 993 0 0 16.5700 108.898 2 38 992 16.7625 108.913 TS 40 994 4 16
1994242N12112 1994 74 WP MM JOEL 1994-09-05 18:00:00 TS 17.0250 109.000 35 992 tokyo main 131 105 OOOO__________ jtwc_wp WP231994 17.1000 108.800 35 0 17.3000 109.100 3 35 992 0 9 80 80 0 16.7000 109.100 2 38 990 17.0000 109.000 TS 40 994 6 28
1994242N12112 1994 74 WP MM JOEL 1994-09-05 21:00:00 TS 17.2951 109.174 main 105 70 PPPP__________ WP231994 17.3275 108.892 35 0 17.6076 109.322 3 37 991 0 9 80 80 16.9251 109.330 2 38 990 17.3200 109.150 TS 42 992 7 27
1994242N12112 1994 74 WP MM JOEL 1994-09-06 00:00:00 TS 17.6250 109.325 40 990 tokyo main 70 24 OOOO__________ jtwc_wp WP231994 17.6000 109.000 35 0 17.9000 109.500 3 40 990 0 9 80 80 0 17.3000 109.500 2 38 990 17.7000 109.300 TS 45 990 8 17
1994242N12112 1994 74 WP MM JOEL 1994-09-06 03:00:00 TS 18.0154 109.397 main 24 0 PPPP__________ WP231994 17.9350 109.037 37 0 18.1348 109.547 3 42 990 0 9 90 90 17.8922 109.562 2 38 987 18.0998 109.440 TS 47 987 8 359
1994242N12112 1994 74 WP MM JOEL 1994-09-06 06:00:00 TS 18.4250 109.300 45 990 tokyo main 0 0 OOOO__________ jtwc_wp WP231994 18.3000 109.000 40 0 18.4000 109.400 3 45 990 0 9 100 100 0 18.5000 109.400 2 38 985 18.5000 109.400 STS 50 985 9 331
1994242N12112 1994 74 WP MM JOEL 1994-09-06 09:00:00 TS 18.8160 108.930 main 0 0 PPPP__________ WP231994 18.6650 108.888 42 0 18.8079 108.966 3 45 990 0 9 100 100 18.9106 108.881 2 38 985 18.8804 108.988 STS 50 985 11 314
1994242N12112 1994 74 WP MM JOEL 1994-09-06 12:00:00 TS 19.1500 108.500 45 990 tokyo main 15 15 OOOO__________ jtwc_wp WP231994 19.0000 108.700 45 0 19.2000 108.500 3 45 990 0 9 100 100 0 19.2000 108.300 2 38 985 19.2000 108.500 STS 50 985 9 312
1994242N12112 1994 74 WP MM JOEL 1994-09-06 15:00:00 TS 19.3886 108.255 main 33 33 PPPP__________ WP231994 19.2650 108.465 45 0 19.4298 108.312 3 45 990 0 9 100 100 19.4373 107.982 2 38 985 19.4223 108.262 STS 50 985 6 317
1994242N12112 1994 74 WP MM JOEL 1994-09-06 18:00:00 TS 19.5750 108.075 45 990 tokyo main 62 62 OOOO__________ jtwc_wp WP231994 19.5000 108.200 45 0 19.6000 108.200 3 45 990 0 9 100 100 0 19.6000 107.800 2 38 985 19.6000 108.100 STS 50 985 5 317
1994242N12112 1994 74 WP MM JOEL 1994-09-06 21:00:00 TS 19.7512 107.895 main 92 92 PPPP__________ WP231994 19.7499 107.957 45 0 19.7849 108.030 3 42 990 0 9 95 95 19.6774 107.685 2 38 985 19.7924 107.907 STS 50 985 5 317
1994242N12112 1994 74 WP MM JOEL 1994-09-07 00:00:00 TS 19.9500 107.700 40 990 tokyo main 113 84 OOOO__________ jtwc_wp WP231994 20.0000 107.700 45 0 20.0000 107.800 3 40 990 0 9 90 90 0 19.8000 107.600 2 38 985 20.0000 107.700 STS 50 985 6 318
1994242N12112 1994 74 WP MM JOEL 1994-09-07 03:00:00 TS 20.2225 107.451 main 84 44 PPPP__________ WP231994 20.2500 107.407 45 0 20.2851 107.465 3 40 990 0 9 90 90 20.1125 107.472 2 43 982 20.2425 107.457 STS 50 985 8 319
1994242N12112 1994 74 WP MM JOEL 1994-09-07 06:00:00 TS 20.5250 107.175 40 990 tokyo main 44 10 OOOO__________ jtwc_wp WP231994 20.5000 107.100 45 0 20.6000 107.100 3 40 990 0 9 90 90 0 20.5000 107.300 3 48 980 20.5000 107.200 STS 50 985 8 320
1994242N12112 1994 74 WP MM JOEL 1994-09-07 09:00:00 TS 20.8218 106.915 main 10 0 PPPP__________ WP231994 20.7499 106.807 42 0 20.9224 106.792 3 40 990 0 9 85 85 20.8723 107.095 3 43 982 20.7424 106.965 STS 47 987 8 318
1994242N12112 1994 74 WP MM JOEL 1994-09-07 12:00:00 TS 21.1000 106.625 40 990 tokyo main 0 0 OOOO__________ jtwc_wp WP231994 21.0000 106.500 40 0 21.2000 106.500 3 40 990 0 9 80 80 0 21.2000 106.800 2 38 985 21.0000 106.700 TS 45 990 8 312
1994242N12112 1994 74 WP MM JOEL 1994-09-07 15:00:00 TS 21.3549 106.281 main 0 0 PPPP__________ WP231994 21.2425 106.157 35 0 21.3650 106.185 3 994 0 9 21.5122 106.418 2 38 987 21.3000 106.365 TS 42 992 8 304
1994242N12112 1994 74 WP MM JOEL 1994-09-07 18:00:00 TS 21.5467 105.900 998 tokyo main 0 0 OOOO__________ jtwc_wp WP231994 21.5000 105.800 30 -1 21.5000 105.900 2 998 0 0 0 21.6000 105.900 2 38 990 21.6000 106.000 TS 40 994 8 297
1994242N12112 1994 74 WP MM JOEL 1994-09-07 21:00:00 TS 21.7054 105.544 main 0 0 PPPP__________ WP231994 21.7849 105.450 25 -1 21.6774 105.692 2 1001 0 0 21.3133 105.238 2 33 996 21.8500 105.642 TS 35 997 7 303
1994242N12112 1994 74 WP MM JOEL 1994-09-08 00:00:00 TS 21.9385 105.238 1004 tokyo main 0 0 OOOO__________ jtwc_wp WP231994 22.1000 105.100 20 -1 21.9000 105.500 2 1004 0 0 0 20.8000 104.500 1 29 1002 22.1000 105.300 TD 30 1000 8 321
1994242N12112 1994 74 WP MM JOEL 1994-09-08 03:00:00 TS 22.3250 104.995 main 0 0 PP_P__________ WP231994 22.4350 104.742 17 -1 22.1550 105.257 2 1004 0 0 1 22.3849 104.985 TD 30 1000 9 327
1994242N12112 1994 74 WP MM JOEL 1994-09-08 06:00:00 TS 22.6545 104.727 1004 tokyo main 0 0 OO_O__________ jtwc_wp WP231994 22.8000 104.400 15 -1 22.5000 105.000 2 1004 0 0 0 22.7000 104.700 TD 30 1000 8 328
1994242N12112 1994 74 WP MM JOEL 1994-09-08 09:00:00 TS 23.0404 104.513 main 0 0 PP_P__________ WP231994 23.1926 104.090 12 -1 22.9697 104.787 2 1005 0 0 23.0349 104.450 TD 30 1000 9 333
1994242N12112 1994 74 WP MM JOEL 1994-09-08 12:00:00 TS 23.4714 104.271 1006 tokyo main 0 0 OO_O__________ jtwc_wp WP231994 23.6000 103.800 10 -1 23.5000 104.500 2 1006 0 0 0 23.4000 104.200 TD 30 1000 10 331
1994242N12112 1994 74 WP MM JOEL 1994-09-08 15:00:00 TS 23.9016 103.982 main 0 0 _P_P__________ WP231994 -1 24.0106 104.051 2 1007 0 0 23.7927 103.913 TD 27 1002 11 323
1994242N12112 1994 74 WP MM JOEL 1994-09-08 18:00:00 TS 24.3500 103.550 1008 tokyo main 0 _O_O__________ -1 24.5000 103.500 2 1008 0 0 0 24.2000 103.600 TD 25 1005 12 319

デジタル台風データ・検索

IBTrACS Databaseについて

本データベースは、米国NOAAが公開する1842年以降の世界の熱帯低気圧のベストトラックデータアーカイブInternational Best Track Archive for Climate Stewardship (IBTrACS)を、ウェブで閲覧しやすい形式に変換したものです。

最終更新日:2021-10-21